sensor_id;sensor_type;location;lat;lon;timestamp;pressure;altitude;pressure_sealevel;temperature;humidity
75425;BME280;64007;50.632;13.700;2024-02-26T00:01:38;96692.69;;;2.43;100.00
75425;BME280;64007;50.632;13.700;2024-02-26T00:04:04;96699.38;;;2.47;100.00
75425;BME280;64007;50.632;13.700;2024-02-26T00:06:30;96694.97;;;2.35;100.00
75425;BME280;64007;50.632;13.700;2024-02-26T00:08:56;96696.84;;;2.33;100.00
75425;BME280;64007;50.632;13.700;2024-02-26T00:11:22;96691.81;;;2.30;100.00
75425;BME280;64007;50.632;13.700;2024-02-26T00:13:48;96689.94;;;2.32;100.00
75425;BME280;64007;50.632;13.700;2024-02-26T00:16:13;96696.66;;;2.36;100.00
75425;BME280;64007;50.632;13.700;2024-02-26T00:18:39;96701.16;;;2.34;100.00
75425;BME280;64007;50.632;13.700;2024-02-26T00:21:05;96709.03;;;2.34;100.00
75425;BME280;64007;50.632;13.700;2024-02-26T00:23:30;96710.91;;;2.32;100.00
75425;BME280;64007;50.632;13.700;2024-02-26T00:25:57;96709.25;;;2.31;100.00
75425;BME280;64007;50.632;13.700;2024-02-26T00:28:22;96702.31;;;2.30;100.00
75425;BME280;64007;50.632;13.700;2024-02-26T00:30:50;96694.44;;;2.30;100.00
75425;BME280;64007;50.632;13.700;2024-02-26T00:33:21;96699.81;;;2.29;100.00
75425;BME280;64007;50.632;13.700;2024-02-26T00:35:47;96696.84;;;2.33;100.00
75425;BME280;64007;50.632;13.700;2024-02-26T00:38:12;96695.41;;;2.29;100.00
75425;BME280;64007;50.632;13.700;2024-02-26T00:40:38;96695.59;;;2.26;100.00
75425;BME280;64007;50.632;13.700;2024-02-26T00:43:04;96683.00;;;2.31;100.00
75425;BME280;64007;50.632;13.700;2024-02-26T00:45:30;96688.03;;;2.34;100.00
75425;BME280;64007;50.632;13.700;2024-02-26T00:47:58;96676.09;;;2.30;100.00
75425;BME280;64007;50.632;13.700;2024-02-26T00:50:24;96674.41;;;2.29;100.00
75425;BME280;64007;50.632;13.700;2024-02-26T00:52:49;96662.88;;;2.32;100.00
75425;BME280;64007;50.632;13.700;2024-02-26T00:55:15;96665.28;;;2.35;100.00
75425;BME280;64007;50.632;13.700;2024-02-26T00:57:41;96667.69;;;2.38;100.00
75425;BME280;64007;50.632;13.700;2024-02-26T01:00:08;96668.13;;;2.44;100.00
75425;BME280;64007;50.632;13.700;2024-02-26T01:02:36;96667.19;;;2.45;100.00
75425;BME280;64007;50.632;13.700;2024-02-26T01:05:04;96671.47;;;2.46;100.00
75425;BME280;64007;50.632;13.700;2024-02-26T01:07:31;96666.34;;;2.45;100.00
75425;BME280;64007;50.632;13.700;2024-02-26T01:10:02;96666.22;;;2.46;100.00
75425;BME280;64007;50.632;13.700;2024-02-26T01:12:28;96661.28;;;2.55;100.00
75425;BME280;64007;50.632;13.700;2024-02-26T01:14:53;96660.13;;;2.59;100.00
75425;BME280;64007;50.632;13.700;2024-02-26T01:17:19;96658.22;;;2.61;100.00
75425;BME280;64007;50.632;13.700;2024-02-26T01:19:45;96654.13;;;2.57;100.00
75425;BME280;64007;50.632;13.700;2024-02-26T01:22:10;96649.84;;;2.56;100.00
75425;BME280;64007;50.632;13.700;2024-02-26T01:24:36;96637.00;;;2.64;100.00
75425;BME280;64007;50.632;13.700;2024-02-26T01:27:02;96641.41;;;2.63;100.00
75425;BME280;64007;50.632;13.700;2024-02-26T01:29:27;96637.00;;;2.64;100.00
75425;BME280;64007;50.632;13.700;2024-02-26T01:31:53;96636.91;;;2.65;100.00
75425;BME280;64007;50.632;13.700;2024-02-26T01:34:19;96633.66;;;2.62;100.00
75425;BME280;64007;50.632;13.700;2024-02-26T01:36:44;96631.31;;;2.70;100.00
75425;BME280;64007;50.632;13.700;2024-02-26T01:39:10;96623.38;;;2.59;100.00
75425;BME280;64007;50.632;13.700;2024-02-26T01:41:40;96626.94;;;2.58;100.00
75425;BME280;64007;50.632;13.700;2024-02-26T01:44:07;96624.78;;;2.51;100.00
75425;BME280;64007;50.632;13.700;2024-02-26T01:46:34;96617.50;;;2.55;100.00
75425;BME280;64007;50.632;13.700;2024-02-26T01:49:01;96626.56;;;2.51;100.00
75425;BME280;64007;50.632;13.700;2024-02-26T01:51:27;96628.00;;;2.55;100.00
75425;BME280;64007;50.632;13.700;2024-02-26T01:53:54;96623.38;;;2.59;100.00
75425;BME280;64007;50.632;13.700;2024-02-26T01:56:20;96620.03;;;2.57;100.00
75425;BME280;64007;50.632;13.700;2024-02-26T01:58:48;96617.19;;;2.60;100.00
75425;BME280;64007;50.632;13.700;2024-02-26T02:01:15;96615.00;;;2.54;100.00
75425;BME280;64007;50.632;13.700;2024-02-26T02:03:42;96600.28;;;2.64;100.00
75425;BME280;64007;50.632;13.700;2024-02-26T02:06:08;96604.56;;;2.65;100.00
75425;BME280;64007;50.632;13.700;2024-02-26T02:08:35;96603.78;;;2.51;100.00
75425;BME280;64007;50.632;13.700;2024-02-26T02:11:01;96600.53;;;2.48;100.00
75425;BME280;64007;50.632;13.700;2024-02-26T02:13:27;96596.56;;;2.42;100.00
75425;BME280;64007;50.632;13.700;2024-02-26T02:15:52;96593.84;;;2.44;100.00
75425;BME280;64007;50.632;13.700;2024-02-26T02:18:19;96595.72;;;2.42;100.00
75425;BME280;64007;50.632;13.700;2024-02-26T02:20:44;96589.44;;;2.44;100.00
75425;BME280;64007;50.632;13.700;2024-02-26T02:23:10;96588.88;;;2.39;100.00
75425;BME280;64007;50.632;13.700;2024-02-26T02:25:36;96585.34;;;2.40;100.00
75425;BME280;64007;50.632;13.700;2024-02-26T02:28:02;96593.41;;;2.37;100.00
75425;BME280;64007;50.632;13.700;2024-02-26T02:30:29;96593.41;;;2.37;100.00
75425;BME280;64007;50.632;13.700;2024-02-26T02:32:57;96589.66;;;2.41;100.00
75425;BME280;64007;50.632;13.700;2024-02-26T02:35:26;96596.34;;;2.45;100.00
75425;BME280;64007;50.632;13.700;2024-02-26T02:37:52;96593.94;;;2.42;100.00
75425;BME280;64007;50.632;13.700;2024-02-26T02:40:18;96594.69;;;2.44;100.00
75425;BME280;64007;50.632;13.700;2024-02-26T02:42:44;96592.28;;;2.41;100.00
75425;BME280;64007;50.632;13.700;2024-02-26T02:45:09;96597.50;;;2.41;100.00
75425;BME280;64007;50.632;13.700;2024-02-26T02:47:36;96597.50;;;2.41;100.00
75425;BME280;64007;50.632;13.700;2024-02-26T02:50:03;96598.47;;;2.40;100.00
75425;BME280;64007;50.632;13.700;2024-02-26T02:52:29;96604.13;;;2.34;100.00
75425;BME280;64007;50.632;13.700;2024-02-26T02:54:54;96599.81;;;2.33;100.00
75425;BME280;64007;50.632;13.700;2024-02-26T02:57:20;96595.97;;;2.26;100.00
75425;BME280;64007;50.632;13.700;2024-02-26T02:59:46;96600.97;;;2.29;100.00
75425;BME280;64007;50.632;13.700;2024-02-26T03:02:12;96597.63;;;2.27;100.00
75425;BME280;64007;50.632;13.700;2024-02-26T03:04:38;96603.06;;;2.49;100.00
75425;BME280;64007;50.632;13.700;2024-02-26T03:07:04;96612.94;;;2.33;100.00
75425;BME280;64007;50.632;13.700;2024-02-26T03:09:29;96616.72;;;2.29;100.00
75425;BME280;64007;50.632;13.700;2024-02-26T03:11:55;96625.97;;;2.22;100.00
75425;BME280;64007;50.632;13.700;2024-02-26T03:14:21;96624.88;;;2.37;100.00
75425;BME280;64007;50.632;13.700;2024-02-26T03:16:46;96633.09;;;2.20;100.00
75425;BME280;64007;50.632;13.700;2024-02-26T03:19:15;96637.47;;;2.32;100.00
75425;BME280;64007;50.632;13.700;2024-02-26T03:21:44;96634.34;;;2.27;100.00
75425;BME280;64007;50.632;13.700;2024-02-26T03:24:09;96644.84;;;2.27;100.00
75425;BME280;64007;50.632;13.700;2024-02-26T03:26:36;96645.69;;;2.28;100.00
75425;BME280;64007;50.632;13.700;2024-02-26T03:29:02;96651.75;;;2.28;100.00
75425;BME280;64007;50.632;13.700;2024-02-26T03:31:28;96648.19;;;2.29;100.00
75425;BME280;64007;50.632;13.700;2024-02-26T03:33:54;96655.13;;;2.30;100.00
75425;BME280;64007;50.632;13.700;2024-02-26T03:36:20;96650.50;;;2.34;100.00
75425;BME280;64007;50.632;13.700;2024-02-26T03:38:47;96656.69;;;2.45;100.00
75425;BME280;64007;50.632;13.700;2024-02-26T03:41:13;96647.13;;;2.44;100.00
75425;BME280;64007;50.632;13.700;2024-02-26T03:43:39;96641.69;;;2.47;100.00
75425;BME280;64007;50.632;13.700;2024-02-26T03:46:08;96642.63;;;2.46;100.00
75425;BME280;64007;50.632;13.700;2024-02-26T03:48:36;96635.25;;;2.51;100.00
75425;BME280;64007;50.632;13.700;2024-02-26T03:51:03;96627.16;;;2.55;100.00
75425;BME280;64007;50.632;13.700;2024-02-26T03:53:29;96629.06;;;2.53;100.00
75425;BME280;64007;50.632;13.700;2024-02-26T03:55:55;96623.72;;;2.54;100.00
75425;BME280;64007;50.632;13.700;2024-02-26T03:58:21;96629.47;;;2.59;100.00
75425;BME280;64007;50.632;13.700;2024-02-26T04:00:47;96626.13;;;2.57;100.00
75425;BME280;64007;50.632;13.700;2024-02-26T04:03:15;96628.19;;;2.65;100.00
75425;BME280;64007;50.632;13.700;2024-02-26T04:05:41;96628.59;;;2.71;100.00
75425;BME280;64007;50.632;13.700;2024-02-26T04:08:07;96630.88;;;2.76;100.00
75425;BME280;64007;50.632;13.700;2024-02-26T04:10:33;96635.59;;;2.83;100.00
75425;BME280;64007;50.632;13.700;2024-02-26T04:13:01;96637.78;;;2.90;100.00
75425;BME280;64007;50.632;13.700;2024-02-26T04:15:26;96638.06;;;2.98;100.00
75425;BME280;64007;50.632;13.700;2024-02-26T04:17:52;96640.63;;;3.10;100.00
75425;BME280;64007;50.632;13.700;2024-02-26T04:20:18;96638.25;;;3.19;100.00
75425;BME280;64007;50.632;13.700;2024-02-26T04:22:44;96638.06;;;3.22;100.00
75425;BME280;64007;50.632;13.700;2024-02-26T04:25:10;96632.59;;;3.25;100.00
75425;BME280;64007;50.632;13.700;2024-02-26T04:27:36;96639.91;;;3.32;100.00
75425;BME280;64007;50.632;13.700;2024-02-26T04:30:02;96639.06;;;3.32;100.00
75425;BME280;64007;50.632;13.700;2024-02-26T04:32:29;96638.84;;;3.35;100.00
75425;BME280;64007;50.632;13.700;2024-02-26T04:34:55;96640.31;;;3.50;100.00
75425;BME280;64007;50.632;13.700;2024-02-26T04:37:20;96634.94;;;3.52;100.00
75425;BME280;64007;50.632;13.700;2024-02-26T04:39:46;96637.22;;;3.56;100.00
75425;BME280;64007;50.632;13.700;2024-02-26T04:42:12;96647.50;;;3.59;100.00
75425;BME280;64007;50.632;13.700;2024-02-26T04:44:37;96642.25;;;3.59;100.00
75425;BME280;64007;50.632;13.700;2024-02-26T04:47:03;96646.47;;;3.62;100.00
75425;BME280;64007;50.632;13.700;2024-02-26T04:49:29;96640.25;;;3.63;100.00
75425;BME280;64007;50.632;13.700;2024-02-26T04:51:54;96643.84;;;3.62;100.00
75425;BME280;64007;50.632;13.700;2024-02-26T04:54:20;96642.41;;;3.69;100.00
75425;BME280;64007;50.632;13.700;2024-02-26T04:56:48;96652.75;;;3.59;100.00
75425;BME280;64007;50.632;13.700;2024-02-26T04:59:14;96662.03;;;3.41;100.00
75425;BME280;64007;50.632;13.700;2024-02-26T05:01:40;96654.78;;;3.21;100.00
75425;BME280;64007;50.632;13.700;2024-02-26T05:04:05;96648.94;;;3.04;100.00
75425;BME280;64007;50.632;13.700;2024-02-26T05:06:31;96651.00;;;2.88;100.00
75425;BME280;64007;50.632;13.700;2024-02-26T05:08:57;96652.91;;;2.86;100.00
75425;BME280;64007;50.632;13.700;2024-02-26T05:11:22;96652.19;;;2.84;100.00
75425;BME280;64007;50.632;13.700;2024-02-26T05:13:48;96650.19;;;2.75;100.00
75425;BME280;64007;50.632;13.700;2024-02-26T05:16:14;96643.28;;;2.74;100.00
75425;BME280;64007;50.632;13.700;2024-02-26T05:18:39;96652.09;;;2.73;100.00
75425;BME280;64007;50.632;13.700;2024-02-26T05:21:05;96652.75;;;2.64;100.00
75425;BME280;64007;50.632;13.700;2024-02-26T05:23:31;96655.09;;;2.56;100.00
75425;BME280;64007;50.632;13.700;2024-02-26T05:25:56;96653.63;;;2.51;100.00
75425;BME280;64007;50.632;13.700;2024-02-26T05:28:22;96655.75;;;2.46;100.00
75425;BME280;64007;50.632;13.700;2024-02-26T05:30:48;96658.25;;;2.48;100.00
75425;BME280;64007;50.632;13.700;2024-02-26T05:33:14;96657.28;;;2.62;100.00
75425;BME280;64007;50.632;13.700;2024-02-26T05:35:39;96659.41;;;2.44;100.00
75425;BME280;64007;50.632;13.700;2024-02-26T05:38:06;96656.78;;;2.31;100.00
75425;BME280;64007;50.632;13.700;2024-02-26T05:40:31;96667.06;;;2.34;100.00
75425;BME280;64007;50.632;13.700;2024-02-26T05:42:57;96662.47;;;2.25;100.00
75425;BME280;64007;50.632;13.700;2024-02-26T05:45:22;96658.91;;;2.26;100.00
75425;BME280;64007;50.632;13.700;2024-02-26T05:47:48;96668.53;;;2.38;100.00
75425;BME280;64007;50.632;13.700;2024-02-26T05:50:15;96664.78;;;2.42;100.00
75425;BME280;64007;50.632;13.700;2024-02-26T05:52:41;96665.72;;;2.41;100.00
75425;BME280;64007;50.632;13.700;2024-02-26T05:55:07;96669.81;;;2.45;100.00
75425;BME280;64007;50.632;13.700;2024-02-26T05:57:34;96673.22;;;2.59;100.00
75425;BME280;64007;50.632;13.700;2024-02-26T05:59:59;96667.47;;;2.54;100.00
75425;BME280;64007;50.632;13.700;2024-02-26T06:02:30;96678.16;;;2.63;100.00
75425;BME280;64007;50.632;13.700;2024-02-26T06:04:55;96681.72;;;2.62;100.00
75425;BME280;64007;50.632;13.700;2024-02-26T06:07:21;96681.97;;;2.46;100.00
75425;BME280;64007;50.632;13.700;2024-02-26T06:09:47;96675.88;;;2.33;100.00
75425;BME280;64007;50.632;13.700;2024-02-26T06:12:14;96677.34;;;2.37;100.00
75425;BME280;64007;50.632;13.700;2024-02-26T06:14:39;96683.44;;;2.25;100.00
75425;BME280;64007;50.632;13.700;2024-02-26T06:17:05;96683.44;;;2.25;100.00
75425;BME280;64007;50.632;13.700;2024-02-26T06:19:32;96678.19;;;2.25;100.00
75425;BME280;64007;50.632;13.700;2024-02-26T06:21:58;96676.72;;;2.21;100.00
75425;BME280;64007;50.632;13.700;2024-02-26T06:24:23;96677.97;;;2.28;100.00
75425;BME280;64007;50.632;13.700;2024-02-26T06:26:49;96671.28;;;2.24;100.00
75425;BME280;64007;50.632;13.700;2024-02-26T06:29:15;96674.41;;;2.29;100.00
75425;BME280;64007;50.632;13.700;2024-02-26T06:31:40;96673.16;;;2.35;100.00
75425;BME280;64007;50.632;13.700;2024-02-26T06:34:06;96679.13;;;2.49;100.00
75425;BME280;64007;50.632;13.700;2024-02-26T06:36:32;96670.59;;;2.59;100.00
75425;BME280;64007;50.632;13.700;2024-02-26T06:38:58;96672.56;;;2.68;100.00
75425;BME280;64007;50.632;13.700;2024-02-26T06:41:24;96676.09;;;2.92;100.00
75425;BME280;64007;50.632;13.700;2024-02-26T06:43:55;96674.25;;;2.81;100.00
75425;BME280;64007;50.632;13.700;2024-02-26T06:46:24;96681.06;;;2.84;100.00
75425;BME280;64007;50.632;13.700;2024-02-26T06:48:51;96684.41;;;2.86;100.00
75425;BME280;64007;50.632;13.700;2024-02-26T06:51:17;96675.59;;;2.87;100.00
75425;BME280;64007;50.632;13.700;2024-02-26T06:53:43;96677.84;;;3.04;100.00
75425;BME280;64007;50.632;13.700;2024-02-26T06:56:09;96676.16;;;3.03;100.00
75425;BME280;64007;50.632;13.700;2024-02-26T06:58:34;96681.41;;;3.03;100.00
75425;BME280;64007;50.632;13.700;2024-02-26T07:01:00;96676.03;;;3.05;100.00
75425;BME280;64007;50.632;13.700;2024-02-26T07:03:25;96686.22;;;3.09;100.00
75425;BME280;64007;50.632;13.700;2024-02-26T07:05:51;96688.16;;;3.19;100.00
75425;BME280;64007;50.632;13.700;2024-02-26T07:08:17;96689.75;;;3.21;100.00
75425;BME280;64007;50.632;13.700;2024-02-26T07:10:43;96697.97;;;3.40;100.00
75425;BME280;64007;50.632;13.700;2024-02-26T07:13:09;96689.41;;;3.50;100.00
75425;BME280;64007;50.632;13.700;2024-02-26T07:15:35;96695.28;;;3.29;100.00
75425;BME280;64007;50.632;13.700;2024-02-26T07:18:00;96693.13;;;3.10;100.00
75425;BME280;64007;50.632;13.700;2024-02-26T07:20:30;96691.47;;;3.09;100.00
75425;BME280;64007;50.632;13.700;2024-02-26T07:22:56;96693.38;;;3.07;100.00
75425;BME280;64007;50.632;13.700;2024-02-26T07:25:22;96697.09;;;3.16;100.00
75425;BME280;64007;50.632;13.700;2024-02-26T07:27:50;96697.72;;;3.20;100.00
75425;BME280;64007;50.632;13.700;2024-02-26T07:30:16;96699.59;;;3.30;100.00
75425;BME280;64007;50.632;13.700;2024-02-26T07:32:42;96700.13;;;3.46;100.00
75425;BME280;64007;50.632;13.700;2024-02-26T07:35:08;96707.03;;;3.60;100.00
75425;BME280;64007;50.632;13.700;2024-02-26T07:37:34;96714.56;;;3.65;100.00
75425;BME280;64007;50.632;13.700;2024-02-26T07:40:00;96717.94;;;3.67;100.00
75425;BME280;64007;50.632;13.700;2024-02-26T07:42:26;96712.66;;;3.67;100.00
75425;BME280;64007;50.632;13.700;2024-02-26T07:44:52;96718.31;;;3.73;100.00
75425;BME280;64007;50.632;13.700;2024-02-26T07:47:18;96721.44;;;3.78;100.00
75425;BME280;64007;50.632;13.700;2024-02-26T07:49:44;96721.19;;;3.82;100.00
75425;BME280;64007;50.632;13.700;2024-02-26T07:52:10;96716.81;;;3.93;100.00
75425;BME280;64007;50.632;13.700;2024-02-26T07:54:36;96721.66;;;4.11;100.00
75425;BME280;64007;50.632;13.700;2024-02-26T07:57:02;96732.06;;;4.23;100.00
75425;BME280;64007;50.632;13.700;2024-02-26T07:59:31;96732.09;;;4.34;100.00
75425;BME280;64007;50.632;13.700;2024-02-26T08:01:57;96726.16;;;4.55;100.00
75425;BME280;64007;50.632;13.700;2024-02-26T08:04:23;96734.88;;;4.66;100.00
75425;BME280;64007;50.632;13.700;2024-02-26T08:06:48;96733.31;;;4.75;100.00
75425;BME280;64007;50.632;13.700;2024-02-26T08:09:14;96735.97;;;4.86;100.00
75425;BME280;64007;50.632;13.700;2024-02-26T08:11:40;96736.09;;;4.96;100.00
75425;BME280;64007;50.632;13.700;2024-02-26T08:14:06;96747.56;;;5.06;100.00
75425;BME280;64007;50.632;13.700;2024-02-26T08:16:31;96737.72;;;5.19;100.00
75425;BME280;64007;50.632;13.700;2024-02-26T08:18:57;96740.25;;;5.21;100.00
75425;BME280;64007;50.632;13.700;2024-02-26T08:21:23;96748.41;;;5.29;100.00
75425;BME280;64007;50.632;13.700;2024-02-26T08:23:49;96753.16;;;5.35;100.00
75425;BME280;64007;50.632;13.700;2024-02-26T08:26:14;96751.38;;;5.35;100.00
75425;BME280;64007;50.632;13.700;2024-02-26T08:28:40;96747.91;;;5.35;100.00
75425;BME280;64007;50.632;13.700;2024-02-26T08:31:06;96747.66;;;5.38;100.00
75425;BME280;64007;50.632;13.700;2024-02-26T08:33:32;96756.72;;;5.45;100.00
75425;BME280;64007;50.632;13.700;2024-02-26T08:35:59;96752.69;;;5.41;100.00
75425;BME280;64007;50.632;13.700;2024-02-26T08:38:25;96751.22;;;5.48;100.00
75425;BME280;64007;50.632;13.700;2024-02-26T08:40:51;96749.03;;;5.53;100.00
75425;BME280;64007;50.632;13.700;2024-02-26T08:43:17;96744.00;;;5.61;100.00
75425;BME280;64007;50.632;13.700;2024-02-26T08:45:44;96750.72;;;5.65;100.00
75425;BME280;64007;50.632;13.700;2024-02-26T08:48:10;96746.94;;;5.79;100.00
75425;BME280;64007;50.632;13.700;2024-02-26T08:50:35;96744.16;;;5.81;100.00
75425;BME280;64007;50.632;13.700;2024-02-26T08:53:01;96750.88;;;5.85;100.00
75425;BME280;64007;50.632;13.700;2024-02-26T08:55:27;96749.88;;;5.97;100.00
75425;BME280;64007;50.632;13.700;2024-02-26T08:57:52;96749.16;;;5.95;100.00
75425;BME280;64007;50.632;13.700;2024-02-26T09:00:18;96745.44;;;5.97;100.00
75425;BME280;64007;50.632;13.700;2024-02-26T09:02:47;96749.88;;;5.97;100.00
75425;BME280;64007;50.632;13.700;2024-02-26T09:05:13;96745.31;;;5.99;100.00
75425;BME280;64007;50.632;13.700;2024-02-26T09:07:38;96751.91;;;6.05;100.00
75425;BME280;64007;50.632;13.700;2024-02-26T09:10:05;96750.56;;;6.10;100.00
75425;BME280;64007;50.632;13.700;2024-02-26T09:12:34;96758.69;;;6.18;100.00
75425;BME280;64007;50.632;13.700;2024-02-26T09:14:59;96754.56;;;6.25;100.00
75425;BME280;64007;50.632;13.700;2024-02-26T09:17:25;96756.94;;;6.28;100.00
75425;BME280;64007;50.632;13.700;2024-02-26T09:19:51;96764.06;;;6.38;100.00
75425;BME280;64007;50.632;13.700;2024-02-26T09:22:16;96769.13;;;6.41;100.00
75425;BME280;64007;50.632;13.700;2024-02-26T09:24:42;96769.03;;;6.31;100.00
75425;BME280;64007;50.632;13.700;2024-02-26T09:27:08;96763.75;;;6.31;100.00
75425;BME280;64007;50.632;13.700;2024-02-26T09:29:35;96768.59;;;6.47;100.00
75425;BME280;64007;50.632;13.700;2024-02-26T09:32:01;96768.41;;;6.59;100.00
75425;BME280;64007;50.632;13.700;2024-02-26T09:34:27;96780.63;;;6.60;100.00
75425;BME280;64007;50.632;13.700;2024-02-26T09:36:53;96785.13;;;6.70;100.00
75425;BME280;64007;50.632;13.700;2024-02-26T09:39:18;96784.41;;;6.88;100.00
75425;BME280;64007;50.632;13.700;2024-02-26T09:41:48;96788.78;;;6.78;100.00
75425;BME280;64007;50.632;13.700;2024-02-26T09:44:19;96790.47;;;6.79;100.00
75425;BME280;64007;50.632;13.700;2024-02-26T09:46:52;96784.56;;;6.66;100.00
75425;BME280;64007;50.632;13.700;2024-02-26T09:49:21;96774.78;;;6.57;100.00
75425;BME280;64007;50.632;13.700;2024-02-26T09:51:49;96783.97;;;6.63;100.00
75425;BME280;64007;50.632;13.700;2024-02-26T09:54:17;96785.53;;;6.65;100.00
75425;BME280;64007;50.632;13.700;2024-02-26T09:56:46;96783.06;;;6.73;100.00
75425;BME280;64007;50.632;13.700;2024-02-26T09:59:17;96796.72;;;6.78;100.00
75425;BME280;64007;50.632;13.700;2024-02-26T10:01:44;96788.28;;;6.84;100.00
75425;BME280;64007;50.632;13.700;2024-02-26T10:04:11;96780.16;;;6.97;100.00
75425;BME280;64007;50.632;13.700;2024-02-26T10:06:37;96775.88;;;7.06;100.00
75425;BME280;64007;50.632;13.700;2024-02-26T10:09:03;96782.81;;;7.07;100.00
75425;BME280;64007;50.632;13.700;2024-02-26T10:11:32;96779.22;;;7.08;100.00
75425;BME280;64007;50.632;13.700;2024-02-26T10:13:58;96766.72;;;7.19;100.00
75425;BME280;64007;50.632;13.700;2024-02-26T10:16:27;96771.00;;;7.11;100.00
75425;BME280;64007;50.632;13.700;2024-02-26T10:18:53;96772.84;;;7.20;100.00
75425;BME280;64007;50.632;13.700;2024-02-26T10:21:20;96781.28;;;7.04;100.00
75425;BME280;64007;50.632;13.700;2024-02-26T10:23:47;96786.44;;;7.06;100.00
75425;BME280;64007;50.632;13.700;2024-02-26T10:26:14;96793.06;;;6.90;100.00
75425;BME280;64007;50.632;13.700;2024-02-26T10:28:41;96793.22;;;6.99;100.00
75425;BME280;64007;50.632;13.700;2024-02-26T10:31:08;96797.81;;;6.97;100.00
75425;BME280;64007;50.632;13.700;2024-02-26T10:33:35;96803.13;;;7.06;100.00
75425;BME280;64007;50.632;13.700;2024-02-26T10:36:03;96801.47;;;7.05;100.00
75425;BME280;64007;50.632;13.700;2024-02-26T10:38:29;96820.66;;;7.07;100.00
75425;BME280;64007;50.632;13.700;2024-02-26T10:40:56;96822.00;;;6.92;100.00
75425;BME280;64007;50.632;13.700;2024-02-26T10:43:21;96815.88;;;6.91;100.00
75425;BME280;64007;50.632;13.700;2024-02-26T10:45:47;96815.47;;;6.75;100.00
75425;BME280;64007;50.632;13.700;2024-02-26T10:48:13;96819.09;;;6.74;100.00
75425;BME280;64007;50.632;13.700;2024-02-26T10:50:40;96821.41;;;6.88;100.00
75425;BME280;64007;50.632;13.700;2024-02-26T10:53:17;96823.09;;;6.89;100.00
75425;BME280;64007;50.632;13.700;2024-02-26T10:55:48;96815.28;;;6.88;100.00
75425;BME280;64007;50.632;13.700;2024-02-26T10:58:14;96830.31;;;6.87;100.00
75425;BME280;64007;50.632;13.700;2024-02-26T11:00:41;96819.47;;;6.90;100.00
75425;BME280;64007;50.632;13.700;2024-02-26T11:03:08;96819.22;;;6.94;100.00
75425;BME280;64007;50.632;13.700;2024-02-26T11:05:35;96821.84;;;6.94;100.00
75425;BME280;64007;50.632;13.700;2024-02-26T11:08:03;96818.41;;;7.03;100.00
75425;BME280;64007;50.632;13.700;2024-02-26T11:10:29;96809.38;;;7.05;100.00
75425;BME280;64007;50.632;13.700;2024-02-26T11:12:59;96801.22;;;7.18;100.00
75425;BME280;64007;50.632;13.700;2024-02-26T11:15:25;96807.22;;;7.20;100.00
75425;BME280;64007;50.632;13.700;2024-02-26T11:17:52;96812.13;;;7.25;100.00
75425;BME280;64007;50.632;13.700;2024-02-26T11:20:19;96809.78;;;7.31;100.00
75425;BME280;64007;50.632;13.700;2024-02-26T11:22:45;96801.59;;;7.34;100.00
75425;BME280;64007;50.632;13.700;2024-02-26T11:25:11;96802.28;;;7.36;100.00
75425;BME280;64007;50.632;13.700;2024-02-26T11:27:46;96804.66;;;7.39;100.00
75425;BME280;64007;50.632;13.700;2024-02-26T11:30:14;96802.25;;;7.27;100.00
75425;BME280;64007;50.632;13.700;2024-02-26T11:32:44;96799.06;;;7.23;100.00
75425;BME280;64007;50.632;13.700;2024-02-26T11:35:11;96796.78;;;7.18;100.00
75425;BME280;64007;50.632;13.700;2024-02-26T11:37:41;96791.06;;;7.13;100.00
75425;BME280;64007;50.632;13.700;2024-02-26T11:40:11;96796.66;;;7.20;100.00
75425;BME280;64007;50.632;13.700;2024-02-26T11:42:43;96796.56;;;7.31;100.00
75425;BME280;64007;50.632;13.700;2024-02-26T11:48:12;96801.22;;;7.48;100.00
75425;BME280;64007;50.632;13.700;2024-02-26T11:50:39;96801.06;;;7.50;100.00
75425;BME280;64007;50.632;13.700;2024-02-26T11:53:25;96800.41;;;7.58;100.00
75425;BME280;64007;50.632;13.700;2024-02-26T11:56:19;96800.31;;;7.69;100.00
75425;BME280;64007;50.632;13.700;2024-02-26T11:58:46;96801.84;;;7.81;100.00
75425;BME280;64007;50.632;13.700;2024-02-26T12:01:40;96806.72;;;7.85;100.00
75425;BME280;64007;50.632;13.700;2024-02-26T12:04:07;96803.41;;;7.93;100.00
75425;BME280;64007;50.632;13.700;2024-02-26T12:06:41;96812.03;;;7.85;100.00
75425;BME280;64007;50.632;13.700;2024-02-26T12:09:07;96806.72;;;7.85;100.00
75425;BME280;64007;50.632;13.700;2024-02-26T12:11:37;96800.59;;;7.85;100.00
75425;BME280;64007;50.632;13.700;2024-02-26T12:14:05;96805.91;;;7.85;100.00
75425;BME280;64007;50.632;13.700;2024-02-26T12:16:37;96803.94;;;7.77;100.00
75425;BME280;64007;50.632;13.700;2024-02-26T12:19:07;96809.38;;;7.76;100.00
75425;BME280;64007;50.632;13.700;2024-02-26T12:21:37;96816.88;;;7.61;100.00
75425;BME280;64007;50.632;13.700;2024-02-26T12:24:14;96815.16;;;7.60;100.00
75425;BME280;64007;50.632;13.700;2024-02-26T12:26:41;96812.78;;;7.57;100.00
75425;BME280;64007;50.632;13.700;2024-02-26T12:29:08;96804.69;;;7.49;100.00
75425;BME280;64007;50.632;13.700;2024-02-26T12:31:34;96799.38;;;7.39;100.00
75425;BME280;64007;50.632;13.700;2024-02-26T12:34:03;96799.38;;;7.39;100.00
75425;BME280;64007;50.632;13.700;2024-02-26T12:36:29;96798.94;;;7.34;100.00
75425;BME280;64007;50.632;13.700;2024-02-26T12:38:55;96799.81;;;7.44;100.00
75425;BME280;64007;50.632;13.700;2024-02-26T12:41:22;96789.81;;;7.58;100.00
75425;BME280;64007;50.632;13.700;2024-02-26T12:43:48;96802.25;;;7.67;100.00
75425;BME280;64007;50.632;13.700;2024-02-26T12:46:14;96802.28;;;7.76;100.00
75425;BME280;64007;50.632;13.700;2024-02-26T12:48:44;96807.72;;;7.94;100.00
75425;BME280;64007;50.632;13.700;2024-02-26T12:51:12;96797.88;;;8.15;100.00